createdAt,value
2022-12-24T00:03:00.822Z,0.60
2022-12-24T00:07:03.647Z,0.70
2022-12-24T00:11:08.080Z,0.70
2022-12-24T00:15:11.836Z,0.55
2022-12-24T00:19:14.612Z,0.45
2022-12-24T00:23:18.460Z,0.65
2022-12-24T00:27:22.513Z,1.10
2022-12-24T00:31:26.501Z,0.60
2022-12-24T00:35:29.565Z,0.80
2022-12-24T00:39:32.524Z,1.75
2022-12-24T00:43:36.628Z,0.47
2022-12-24T00:47:39.559Z,0.40
2022-12-24T00:51:42.364Z,0.52
2022-12-24T00:55:45.230Z,0.77
2022-12-24T00:59:49.387Z,0.95
2022-12-24T01:04:12.789Z,0.82
2022-12-24T01:08:15.709Z,0.60
2022-12-24T01:12:18.512Z,0.63
2022-12-24T01:16:22.830Z,0.88
2022-12-24T01:20:27.016Z,0.55
2022-12-24T01:24:29.750Z,0.57
2022-12-24T01:28:33.555Z,1.00
2022-12-24T01:32:37.690Z,0.63
2022-12-24T01:36:40.406Z,0.77
2022-12-24T01:41:01.289Z,0.98
2022-12-24T01:45:39.507Z,1.00
2022-12-24T01:49:47.560Z,0.65
2022-12-24T01:53:55.571Z,0.70
2022-12-24T01:58:01.560Z,0.73
2022-12-24T02:02:05.974Z,0.80
2022-12-24T02:06:12.284Z,0.73
2022-12-24T02:10:15.715Z,0.70
2022-12-24T02:14:19.273Z,0.80
2022-12-24T02:18:30.550Z,1.02
2022-12-24T02:22:47.927Z,0.60
2022-12-24T02:27:10.679Z,0.75
2022-12-24T02:31:20.726Z,0.80
2022-12-24T02:35:31.671Z,0.77
2022-12-24T02:39:40.147Z,0.70
2022-12-24T02:43:46.832Z,0.75
2022-12-24T02:47:52.508Z,0.88
2022-12-24T02:51:55.252Z,0.98
2022-12-24T02:56:29.186Z,0.80
2022-12-24T03:00:41.218Z,0.95
2022-12-24T03:04:50.640Z,1.00
2022-12-24T03:09:00.240Z,1.00
2022-12-24T03:13:07.230Z,0.90
2022-12-24T03:17:11.210Z,0.90
2022-12-24T03:21:19.175Z,1.10
2022-12-24T03:25:26.287Z,0.77
2022-12-24T03:29:29.180Z,1.10
2022-12-24T03:33:31.983Z,1.02
2022-12-24T03:37:36.128Z,0.90
2022-12-24T03:41:39.400Z,0.77
2022-12-24T03:45:42.361Z,0.70
2022-12-24T03:49:45.178Z,0.70
2022-12-24T03:53:49.603Z,0.75
2022-12-24T03:57:52.430Z,0.90
2022-12-24T04:01:55.456Z,0.90
2022-12-24T04:06:03.877Z,1.00
2022-12-24T04:10:09.840Z,0.90
2022-12-24T04:14:12.613Z,0.80
2022-12-24T04:18:15.444Z,0.50
2022-12-24T04:22:18.254Z,0.90
2022-12-24T04:26:22.429Z,0.60
2022-12-24T04:30:25.222Z,0.80
2022-12-24T04:34:28.069Z,0.95
2022-12-24T04:38:31.598Z,0.60
2022-12-24T04:42:35.754Z,0.90
2022-12-24T04:46:38.561Z,0.43
2022-12-24T04:50:41.316Z,0.70
2022-12-24T04:54:44.083Z,0.98
2022-12-24T04:58:48.787Z,1.05
2022-12-24T05:02:51.722Z,1.13
2022-12-24T05:06:54.547Z,0.80
2022-12-24T05:10:57.966Z,0.77
2022-12-24T05:15:02.296Z,1.17
2022-12-24T05:19:05.195Z,0.90
2022-12-24T05:23:25.513Z,1.15
2022-12-24T05:27:28.496Z,0.82
2022-12-24T05:31:34.431Z,0.93
2022-12-24T05:35:37.153Z,1.00
2022-12-24T05:39:39.939Z,0.60
2022-12-24T05:43:42.827Z,0.70
2022-12-24T05:47:46.930Z,0.80
2022-12-24T05:51:49.754Z,0.90
2022-12-24T05:55:52.498Z,0.77
2022-12-24T05:59:55.230Z,1.00
2022-12-24T06:03:59.435Z,0.95
2022-12-24T06:08:02.234Z,0.88
2022-12-24T06:12:05.371Z,0.80
2022-12-24T06:16:12.905Z,1.00
2022-12-24T06:20:17.139Z,1.00
2022-12-24T06:24:19.957Z,1.17
2022-12-24T06:28:22.638Z,0.98
2022-12-24T06:32:25.323Z,0.90
2022-12-24T06:36:29.338Z,0.70
2022-12-24T06:40:32.078Z,0.70
2022-12-24T06:44:34.706Z,0.80
2022-12-24T06:48:37.420Z,0.82
2022-12-24T06:52:41.537Z,0.47
2022-12-24T06:56:44.296Z,0.55
2022-12-24T07:00:48.767Z,0.82
2022-12-24T07:04:51.760Z,0.70
2022-12-24T07:08:55.975Z,2.70
2022-12-24T07:12:58.721Z,0.80
2022-12-24T07:17:01.569Z,0.90
2022-12-24T07:21:05.637Z,0.73
2022-12-24T07:25:11.051Z,0.38
2022-12-24T07:29:13.817Z,0.60
2022-12-24T07:33:16.626Z,0.70
2022-12-24T07:37:19.362Z,0.52
2022-12-24T07:41:23.722Z,0.70
2022-12-24T07:45:26.452Z,0.40
2022-12-24T07:49:29.365Z,0.70
2022-12-24T07:53:32.775Z,0.43
2022-12-24T07:57:36.811Z,0.60
2022-12-24T08:01:39.699Z,1.10
2022-12-24T08:05:42.539Z,0.65
2022-12-24T08:09:46.154Z,0.43
2022-12-24T08:13:50.345Z,0.80
2022-12-24T08:17:53.087Z,0.30
2022-12-24T08:21:56.871Z,1.30
2022-12-24T08:25:59.613Z,0.60
2022-12-24T08:30:03.840Z,0.88
2022-12-24T08:34:09.008Z,0.88
2022-12-24T08:38:11.780Z,0.80
2022-12-24T08:42:14.691Z,0.80
2022-12-24T08:46:18.943Z,0.73
2022-12-24T08:50:21.740Z,0.80
2022-12-24T08:54:30.235Z,1.80
2022-12-24T08:58:33.265Z,0.88
2022-12-24T09:02:37.513Z,1.38
2022-12-24T09:06:40.386Z,0.77
2022-12-24T09:10:43.317Z,0.80
2022-12-24T09:14:46.109Z,0.82
2022-12-24T09:18:50.248Z,0.77
2022-12-24T09:22:53.110Z,0.73
2022-12-24T09:26:58.116Z,0.70
2022-12-24T09:31:02.786Z,2.42
2022-12-24T09:35:07.843Z,0.75
2022-12-24T09:39:10.598Z,1.00
2022-12-24T09:43:16.939Z,0.75
2022-12-24T09:51:33.134Z,1.70
2022-12-24T09:55:43.891Z,1.05
2022-12-24T09:59:48.137Z,1.45
2022-12-24T10:03:51.024Z,1.17
2022-12-24T10:08:04.008Z,0.80
2022-12-24T10:12:15.048Z,1.70
2022-12-24T10:16:25.216Z,0.63
2022-12-24T10:20:38.691Z,0.68
2022-12-24T10:24:51.110Z,0.60
2022-12-24T10:28:58.827Z,0.88
2022-12-24T10:33:01.823Z,0.70
2022-12-24T10:37:05.330Z,0.82
2022-12-24T10:41:09.783Z,1.00
2022-12-24T10:45:18.097Z,0.60
2022-12-24T10:49:31.221Z,0.80
2022-12-24T10:53:41.301Z,0.82
2022-12-24T10:57:47.930Z,0.90
2022-12-24T11:01:51.345Z,0.70
2022-12-24T11:06:06.905Z,0.88
2022-12-24T11:10:23.719Z,0.75
2022-12-24T11:14:34.564Z,1.20
2022-12-24T11:18:43.762Z,1.15
2022-12-24T11:22:50.949Z,1.10
2022-12-24T11:26:53.887Z,1.35
2022-12-24T11:31:01.059Z,1.10
2022-12-24T11:35:08.278Z,1.17
2022-12-24T11:39:20.191Z,1.15
2022-12-24T11:43:23.128Z,0.80
2022-12-24T11:47:35.384Z,1.20
2022-12-24T11:51:39.855Z,1.00
2022-12-24T11:55:46.368Z,1.02
2022-12-24T11:59:52.126Z,1.23
2022-12-24T12:04:00.464Z,1.17
2022-12-24T12:08:12.010Z,1.02
2022-12-24T12:12:18.571Z,1.02
2022-12-24T12:16:27.955Z,0.80
2022-12-24T12:20:35.370Z,0.95
2022-12-24T12:24:44.238Z,0.90
2022-12-24T12:28:50.444Z,1.10
2022-12-24T12:33:00.174Z,1.05
2022-12-24T12:37:14.596Z,0.85
2022-12-24T12:41:28.087Z,1.10
2022-12-24T12:45:40.342Z,1.63
2022-12-24T12:49:49.739Z,0.95
2022-12-24T12:54:17.506Z,1.27
2022-12-24T12:58:26.460Z,0.75
2022-12-24T13:02:46.438Z,0.93
2022-12-24T13:07:15.282Z,1.30
2022-12-24T13:11:42.633Z,0.63
2022-12-24T13:15:58.079Z,0.75
2022-12-24T13:20:19.376Z,0.80
2022-12-24T13:24:25.925Z,0.70
2022-12-24T13:28:38.581Z,0.80
2022-12-24T13:32:49.151Z,1.02
2022-12-24T13:37:05.886Z,1.13
2022-12-24T13:45:48.721Z,0.82
2022-12-24T13:49:54.396Z,0.63
2022-12-24T13:53:59.811Z,0.60
2022-12-24T13:58:04.786Z,1.03
2022-12-24T14:02:21.594Z,0.98
2022-12-24T14:06:26.335Z,0.75
2022-12-24T14:10:31.843Z,0.52
2022-12-24T14:14:36.522Z,1.63
2022-12-24T14:18:43.179Z,1.02
2022-12-24T14:22:47.014Z,10.05
2022-12-24T14:26:53.146Z,14.93
2022-12-24T14:31:01.407Z,3.20
2022-12-24T14:35:15.364Z,5.25
2022-12-24T14:39:25.281Z,3.92
2022-12-24T14:43:36.635Z,3.40
2022-12-24T14:47:46.896Z,2.20
2022-12-24T14:52:03.002Z,1.50
2022-12-24T14:56:14.523Z,1.48
2022-12-24T15:00:21.224Z,3.35
2022-12-24T15:04:24.234Z,2.42
2022-12-24T15:08:31.938Z,1.90
2022-12-24T15:12:34.745Z,3.25
2022-12-24T15:16:37.963Z,4.47
2022-12-24T15:20:47.021Z,1.73
2022-12-24T15:24:51.509Z,1.60
2022-12-24T15:29:02.705Z,1.70
2022-12-24T15:33:07.190Z,1.73
2022-12-24T15:37:17.607Z,1.80
2022-12-24T15:41:24.127Z,1.40
2022-12-24T15:45:29.229Z,1.20
2022-12-24T15:49:34.289Z,1.05
2022-12-24T15:53:43.678Z,1.20
2022-12-24T15:57:48.188Z,1.35
2022-12-24T16:01:51.185Z,1.27
2022-12-24T16:06:01.124Z,1.23
2022-12-24T16:10:14.857Z,2.22
2022-12-24T16:14:20.980Z,2.00
2022-12-24T16:18:26.853Z,1.65
2022-12-24T16:22:32.534Z,2.05
2022-12-24T16:26:38.092Z,2.50
2022-12-24T16:30:42.399Z,2.50
2022-12-24T16:34:45.475Z,3.25
2022-12-24T16:39:05.555Z,4.43
2022-12-24T16:43:25.737Z,2.60
2022-12-24T16:47:35.775Z,3.00
2022-12-24T16:51:41.745Z,2.20
2022-12-24T16:55:45.502Z,2.50
2022-12-24T16:59:48.593Z,1.67
2022-12-24T17:03:52.789Z,1.50
2022-12-24T17:07:55.625Z,1.60
2022-12-24T17:11:58.440Z,1.80
2022-12-24T17:16:01.894Z,2.28
2022-12-24T17:20:07.832Z,1.63
2022-12-24T17:24:11.966Z,2.97
2022-12-24T17:28:14.767Z,3.03
2022-12-24T17:32:17.631Z,1.90
2022-12-24T17:36:22.087Z,1.65
2022-12-24T17:40:24.826Z,2.42
2022-12-24T17:44:27.594Z,3.03
2022-12-24T17:48:30.684Z,2.80
2022-12-24T17:52:35.685Z,1.98
2022-12-24T17:56:38.491Z,2.58
2022-12-24T18:00:41.285Z,3.88
2022-12-24T18:04:44.135Z,2.95
2022-12-24T18:08:48.699Z,1.58
2022-12-24T18:12:51.499Z,1.58
2022-12-24T18:16:54.283Z,1.63
2022-12-24T18:20:57.134Z,1.83
2022-12-24T18:25:01.293Z,1.98
2022-12-24T18:29:05.708Z,1.60
2022-12-24T18:33:08.550Z,1.58
2022-12-24T18:37:11.328Z,1.50
2022-12-24T18:41:18.797Z,3.70
2022-12-24T18:45:21.599Z,3.55
2022-12-24T18:49:24.381Z,2.38
2022-12-24T18:53:27.313Z,2.70
2022-12-24T18:57:31.747Z,3.05
2022-12-24T19:01:36.045Z,3.20
2022-12-24T19:05:39.041Z,2.80
2022-12-24T19:09:41.799Z,2.60
2022-12-24T19:13:48.455Z,5.45
2022-12-24T19:17:55.081Z,2.92
2022-12-24T19:21:57.851Z,3.15
2022-12-24T19:26:00.688Z,2.45
2022-12-24T19:30:05.782Z,3.42
2022-12-24T19:34:08.531Z,3.80
2022-12-24T19:38:11.274Z,3.35
2022-12-24T19:42:14.001Z,3.40
2022-12-24T19:46:20.755Z,3.92
2022-12-24T19:50:23.764Z,5.47
2022-12-24T19:54:26.525Z,3.70
2022-12-24T19:58:32.582Z,3.60
2022-12-24T20:02:36.834Z,3.50
2022-12-24T20:06:39.652Z,3.50
2022-12-24T20:10:44.555Z,2.50
2022-12-24T20:14:47.315Z,2.28
2022-12-24T20:18:53.785Z,1.92
2022-12-24T20:22:56.525Z,1.52
2022-12-24T20:26:59.389Z,1.70
2022-12-24T20:31:02.253Z,1.60
2022-12-24T20:35:07.216Z,1.20
2022-12-24T20:39:10.014Z,1.63
2022-12-24T20:43:13.799Z,1.70
2022-12-24T20:47:16.598Z,1.92
2022-12-24T20:51:24.980Z,2.60
2022-12-24T20:55:28.160Z,4.07
2022-12-24T20:59:30.883Z,3.38
2022-12-24T21:03:33.696Z,2.47
2022-12-24T21:07:38.905Z,2.20
2022-12-24T21:11:59.352Z,2.38
2022-12-24T21:16:02.123Z,1.77
2022-12-24T21:20:05.209Z,2.35
2022-12-24T21:24:10.179Z,2.75
2022-12-24T21:28:12.975Z,2.70
2022-12-24T21:32:15.742Z,2.53
2022-12-24T21:36:18.635Z,2.55
2022-12-24T21:40:22.832Z,2.63
2022-12-24T21:44:25.668Z,3.67
2022-12-24T21:48:45.984Z,3.35
2022-12-24T21:52:48.994Z,2.75
2022-12-24T21:57:12.242Z,2.17
2022-12-24T22:01:15.133Z,3.45
2022-12-24T22:05:18.083Z,3.45
2022-12-24T22:09:38.622Z,4.32
2022-12-24T22:13:42.773Z,4.20
2022-12-24T22:17:45.546Z,4.72
2022-12-24T22:21:48.326Z,5.30
2022-12-24T22:25:51.113Z,5.88
2022-12-24T22:29:55.234Z,6.45
2022-12-24T22:33:58.333Z,7.20
2022-12-24T22:38:01.173Z,6.95
2022-12-24T22:42:03.972Z,7.03
2022-12-24T22:46:08.981Z,8.40
2022-12-24T22:50:12.867Z,6.72
2022-12-24T22:54:15.941Z,7.05
2022-12-24T22:58:18.684Z,6.43
2022-12-24T23:02:28.119Z,5.93
2022-12-24T23:06:31.697Z,5.82
2022-12-24T23:10:35.062Z,5.03
2022-12-24T23:14:55.417Z,5.70
2022-12-24T23:19:01.344Z,4.22
2022-12-24T23:23:04.115Z,3.70
2022-12-24T23:27:06.904Z,3.78
2022-12-24T23:31:10.819Z,2.97
2022-12-24T23:35:14.984Z,3.05
2022-12-24T23:39:17.743Z,3.17
2022-12-24T23:43:20.519Z,2.95
2022-12-24T23:47:23.332Z,2.75
2022-12-24T23:51:28.822Z,2.67
2022-12-24T23:55:31.582Z,2.83
2022-12-24T23:59:34.606Z,2.83
